createdAt,value
2022-09-23T00:06:07.064Z,75.62
2022-09-23T00:34:44.738Z,75.81
2022-09-23T01:03:27.638Z,77.08
2022-09-23T01:32:09.148Z,77.77
2022-09-23T02:00:52.610Z,78.28
2022-09-23T02:29:28.752Z,78.32
2022-09-23T02:58:13.971Z,78.56
2022-09-23T03:26:58.214Z,77.65
2022-09-23T03:55:40.424Z,79.1
2022-09-23T04:24:26.745Z,79.53
2022-09-23T04:53:08.617Z,80.21
2022-09-23T05:21:39.006Z,80.4
2022-09-23T05:50:10.786Z,78.8
2022-09-23T06:18:45.474Z,77.91
2022-09-23T06:47:18.881Z,76.39
2022-09-23T07:15:51.694Z,74.08
2022-09-23T07:44:22.310Z,65.12
2022-09-23T08:13:08.983Z,68.18
2022-09-23T08:41:47.453Z,64.07
2022-09-23T09:10:24.610Z,61.78
2022-09-23T09:38:55.184Z,58.06
2022-09-23T10:07:41.956Z,56.89
2022-09-23T10:36:07.512Z,55.79
2022-09-23T11:04:35.446Z,54.42
2022-09-23T11:33:13.087Z,51.92
2022-09-23T12:01:50.689Z,48.72
2022-09-23T12:30:21.341Z,45.2
2022-09-23T12:58:54.605Z,43.1
2022-09-23T13:27:16.944Z,44.68
2022-09-23T13:55:53.026Z,45.85
2022-09-23T14:24:07.592Z,47
2022-09-23T14:52:27.716Z,48.42
2022-09-23T15:21:00.024Z,50.49
2022-09-23T15:49:23.129Z,51.2
2022-09-23T16:17:49.447Z,53.43
2022-09-23T16:46:28.640Z,55.66
2022-09-23T17:14:47.501Z,58.5
2022-09-23T17:43:14.729Z,62.44
2022-09-23T18:11:36.667Z,64.5
2022-09-23T18:39:56.310Z,68.48
2022-09-23T19:08:26.951Z,70.31
2022-09-23T19:36:50.927Z,70.5
2022-09-23T20:05:21.019Z,72.15
2022-09-23T20:33:36.363Z,73.65
2022-09-23T21:02:05.004Z,74.42
2022-09-23T21:30:23.857Z,74.99
2022-09-23T21:58:52.149Z,76.57
2022-09-23T22:27:34.168Z,76.61
2022-09-23T22:56:18.068Z,77.61
2022-09-23T23:24:55.757Z,77.47
2022-09-23T23:53:33.706Z,78.52
